Time;durP1;ratioP1;P1;durP2;ratioP2;P2;SDS_P1;SDS_P2;PMS_P1;PMS_P2;Temp;Humidity;BMP_temperature;BMP_pressure;BME280_temperature;BME280_humidity;BME280_pressure;Samples;Min_cycle;Max_cycle;Signal;HPM_P1;HPM_P2
2021/09/25 00:01:45;;;;;;;3.92;1.83;;;;;;;22.79;63.36;101257.69;5008144;28;20037;-64
2021/09/25 00:04:11;;;;;;;3.08;1.65;;;;;;;22.80;63.30;101267.34;5026123;28;20128;-64
2021/09/25 00:06:36;;;;;;;4.25;1.65;;;;;;;22.82;63.59;101259.94;5026056;28;20497;-67
2021/09/25 00:09:02;;;;;;;2.78;1.50;;;;;;;22.84;63.67;101263.25;5026962;28;20038;-64
2021/09/25 00:11:29;;;;;;;14.65;7.00;;;;;;;22.84;63.60;101257.91;5010912;28;20080;-66
2021/09/25 00:13:56;;;;;;;39.13;16.15;;;;;;;22.87;63.32;101268.19;5005923;28;20100;-72
2021/09/25 00:16:25;;;;;;;27.88;13.43;;;;;;;22.89;63.55;101266.16;5012520;28;20067;-66
2021/09/25 00:18:53;;;;;;;23.20;11.00;;;;;;;22.91;63.77;101269.44;5025247;28;20055;-66
2021/09/25 00:21:18;;;;;;;28.20;11.48;;;;;;;22.93;63.67;101264.72;5026610;28;20121;-69
2021/09/25 00:23:44;;;;;;;25.23;11.07;;;;;;;22.95;64.04;101270.66;5023889;28;20286;-67
2021/09/25 00:26:10;;;;;;;29.30;10.70;;;;;;;22.96;63.90;101264.28;5008768;28;20084;-65
2021/09/25 00:28:35;;;;;;;23.00;10.80;;;;;;;22.98;63.91;101260.38;4977700;28;20037;-67
2021/09/25 00:31:01;;;;;;;23.27;10.48;;;;;;;23.00;63.84;101263.66;5008488;28;20037;-64
2021/09/25 00:33:27;;;;;;;30.40;10.00;;;;;;;23.02;64.14;101263.44;5007737;28;20490;-66
2021/09/25 00:35:52;;;;;;;27.55;10.70;;;;;;;23.03;64.09;101270.44;4989063;28;20127;-65
2021/09/25 00:38:17;;;;;;;22.60;9.20;;;;;;;23.06;63.73;101266.56;5010954;28;20037;-66
2021/09/25 00:40:43;;;;;;;19.08;8.05;;;;;;;23.05;63.65;101276.44;5011991;28;20060;-66
2021/09/25 00:43:09;;;;;;;18.23;7.45;;;;;;;23.05;63.58;101260.38;4991640;28;20046;-66
2021/09/25 00:45:34;;;;;;;21.75;8.35;;;;;;;23.05;63.73;101260.38;4992262;28;20049;-65
2021/09/25 00:48:00;;;;;;;19.00;7.78;;;;;;;23.07;63.46;101262.84;5009377;28;20034;-66
2021/09/25 00:50:26;;;;;;;16.48;7.93;;;;;;;23.06;63.64;101256.66;5009666;28;20034;-66
2021/09/25 00:52:53;;;;;;;14.80;6.50;;;;;;;23.06;63.79;101254.00;5010047;28;20609;-66
2021/09/25 00:55:20;;;;;;;16.90;7.38;;;;;;;23.06;63.52;101254.00;5010073;28;20276;-66
2021/09/25 00:57:47;;;;;;;14.20;7.03;;;;;;;23.06;63.56;101245.97;5009187;28;20037;-66
2021/09/25 01:00:13;;;;;;;17.27;7.00;;;;;;;23.07;63.59;101236.91;5010741;28;20030;-66
2021/09/25 01:02:38;;;;;;;15.48;6.10;;;;;;;23.07;63.60;101238.75;5028922;28;20520;-66
2021/09/25 01:05:05;;;;;;;13.65;6.35;;;;;;;23.06;63.68;101232.59;5029756;28;20036;-66
2021/09/25 01:07:30;;;;;;;13.82;7.13;;;;;;;23.06;63.88;101235.25;5011561;28;20047;-66
2021/09/25 01:09:56;;;;;;;17.38;6.88;;;;;;;23.06;63.69;101232.59;5029307;28;20124;-66
2021/09/25 01:12:21;;;;;;;13.45;6.35;;;;;;;23.06;63.47;101234.44;5010537;28;20137;-65
2021/09/25 01:14:47;;;;;;;11.65;5.97;;;;;;;23.07;63.51;101236.06;5028992;28;20042;-66
2021/09/25 01:17:13;;;;;;;12.68;6.18;;;;;;;23.07;63.68;101231.53;5029344;28;20037;-66
2021/09/25 01:19:42;;;;;;;9.52;5.50;;;;;;;23.06;63.34;101229.91;5029306;28;20143;-66
2021/09/25 01:22:09;;;;;;;13.88;5.85;;;;;;;23.08;63.43;101233.19;5029145;28;20048;-66
2021/09/25 01:24:35;;;;;;;10.38;5.63;;;;;;;23.08;63.49;101225.16;5028966;28;20508;-65
2021/09/25 01:27:01;;;;;;;13.38;5.82;;;;;;;23.08;63.76;101227.84;5024487;28;20088;-66
2021/09/25 01:29:27;;;;;;;10.57;5.15;;;;;;;23.08;63.46;101229.69;4991630;28;20053;-66
2021/09/25 01:31:54;;;;;;;8.43;5.18;;;;;;;23.08;63.74;101224.34;5009352;28;20033;-66
2021/09/25 01:34:19;;;;;;;11.57;5.63;;;;;;;23.08;63.28;101219.81;5009742;28;20041;-66
2021/09/25 01:36:45;;;;;;;10.05;5.22;;;;;;;23.08;63.69;101201.06;4991749;28;20045;-65
2021/09/25 01:39:10;;;;;;;12.02;5.15;;;;;;;23.08;63.59;101203.75;5009842;28;20038;-65
2021/09/25 01:41:36;;;;;;;10.48;5.35;;;;;;;23.08;63.61;101205.59;5007262;28;20038;-65
2021/09/25 01:44:01;;;;;;;9.70;5.32;;;;;;;23.08;63.77;101205.59;4991565;28;20030;-65
2021/09/25 01:46:27;;;;;;;11.35;5.10;;;;;;;23.08;63.84;101198.41;5028661;28;20400;-65
2021/09/25 01:48:52;;;;;;;8.27;4.63;;;;;;;23.08;63.63;101195.72;5013853;28;20065;-65
2021/09/25 01:51:18;;;;;;;10.30;4.53;;;;;;;23.08;63.66;101195.72;5015234;28;20323;-66
2021/09/25 01:53:44;;;;;;;11.30;4.68;;;;;;;23.10;63.71;101198.19;5014462;28;20061;-66
2021/09/25 01:56:12;;;;;;;15.15;5.28;;;;;;;23.09;63.79;101200.03;5015427;28;20041;-66
2021/09/25 01:58:39;;;;;;;8.13;4.22;;;;;;;23.08;63.81;101201.06;5019225;28;20052;-66
2021/09/25 02:01:06;;;;;;;9.52;4.63;;;;;;;23.09;63.45;101193.88;5021230;28;20030;-66
2021/09/25 02:03:35;;;;;;;9.15;4.25;;;;;;;23.09;63.74;101197.38;5032670;28;20033;-66
2021/09/25 02:06:09;;;;;;;6.82;4.22;;;;;;;23.07;63.76;101193.25;5032922;28;20029;-66
2021/09/25 02:08:36;;;;;;;7.93;3.92;;;;;;;23.08;63.67;101195.72;5014373;28;20087;-66
2021/09/25 02:11:03;;;;;;;8.40;4.35;;;;;;;23.08;63.73;101190.38;5032688;28;20116;-65
2021/09/25 02:13:28;;;;;;;8.98;4.72;;;;;;;23.08;63.59;101189.56;5013822;28;20033;-66
2021/09/25 02:15:54;;;;;;;8.50;3.85;;;;;;;23.08;63.83;101186.88;5011022;28;20188;-66
2021/09/25 02:18:20;;;;;;;7.47;4.00;;;;;;;23.08;64.04;101186.88;5012749;28;20449;-66
2021/09/25 02:20:47;;;;;;;6.22;3.40;;;;;;;23.08;64.06;101187.69;5012406;28;20045;-66
2021/09/25 02:23:12;;;;;;;9.30;3.78;;;;;;;23.07;63.82;101187.91;5013934;28;20042;-66
2021/09/25 02:25:38;;;;;;;6.35;3.58;;;;;;;23.07;63.75;101178.03;5012667;28;20050;-65
2021/09/25 02:28:03;;;;;;;9.38;4.03;;;;;;;23.07;63.70;101179.88;5010766;28;20044;-66
2021/09/25 02:30:29;;;;;;;7.93;3.40;;;;;;;23.06;64.01;101184.41;5018710;28;20052;-65
2021/09/25 02:32:55;;;;;;;5.35;3.50;;;;;;;23.06;63.88;101179.06;5018815;28;20038;-65
2021/09/25 02:35:24;;;;;;;7.07;3.22;;;;;;;23.05;63.80;101177.44;5013406;28;20049;-66
2021/09/25 02:37:50;;;;;;;5.55;3.40;;;;;;;23.06;63.85;101178.25;5012800;28;20042;-66
2021/09/25 02:40:17;;;;;;;5.80;3.05;;;;;;;23.05;63.81;101169.41;5013422;28;20065;-66
2021/09/25 02:42:44;;;;;;;5.95;3.28;;;;;;;23.05;63.92;101164.03;5030939;28;20116;-68
2021/09/25 02:45:11;;;;;;;6.93;3.25;;;;;;;23.07;63.85;101166.50;5032293;28;20042;-68
2021/09/25 02:47:37;;;;;;;6.85;3.28;;;;;;;23.06;64.35;101165.69;5021082;28;20041;-68
2021/09/25 02:50:05;;;;;;;6.70;3.25;;;;;;;23.05;64.26;101164.03;5012579;28;20084;-68
2021/09/25 02:52:30;;;;;;;7.63;3.40;;;;;;;23.07;64.22;101167.31;5012064;28;20504;-68
2021/09/25 02:54:56;;;;;;;7.47;3.08;;;;;;;23.05;64.34;101161.38;4994218;28;20058;-68
2021/09/25 02:57:21;;;;;;;6.28;3.40;;;;;;;23.05;64.24;101161.38;5013221;28;20511;-68
2021/09/25 02:59:47;;;;;;;7.10;3.15;;;;;;;23.06;64.44;101159.50;5013157;28;20580;-68
2021/09/25 03:02:12;;;;;;;5.40;3.05;;;;;;;23.05;64.53;101150.66;5024034;28;20471;-68
2021/09/25 03:04:38;;;;;;;6.55;3.10;;;;;;;23.05;64.21;101150.66;5013719;28;20041;-68
2021/09/25 03:07:03;;;;;;;5.47;3.17;;;;;;;23.05;64.39;101148.00;5031671;28;20034;-68
2021/09/25 03:09:29;;;;;;;5.22;3.00;;;;;;;23.06;64.14;101148.81;5013818;28;20149;-68
2021/09/25 03:11:55;;;;;;;5.63;3.15;;;;;;;23.06;64.38;101146.94;5009674;28;20386;-69
2021/09/25 03:14:20;;;;;;;5.28;2.65;;;;;;;23.05;64.15;101137.28;5011948;28;20448;-68
2021/09/25 03:16:46;;;;;;;6.40;3.20;;;;;;;23.05;64.42;101150.66;5010022;28;20475;-67
2021/09/25 03:19:11;;;;;;;5.30;3.00;;;;;;;23.05;64.40;101148.00;5011863;28;20042;-68
2021/09/25 03:21:37;;;;;;;4.80;2.88;;;;;;;23.05;64.29;101150.66;5011171;28;20045;-67
2021/09/25 03:24:03;;;;;;;5.05;2.78;;;;;;;23.05;64.48;101155.19;5023278;28;20489;-68
2021/09/25 03:26:29;;;;;;;7.70;2.70;;;;;;;23.05;64.65;101158.69;5030387;28;20036;-65
2021/09/25 03:28:55;;;;;;;6.57;2.80;;;;;;;23.06;64.67;101148.81;4997524;28;20052;-66
2021/09/25 03:31:20;;;;;;;5.72;2.55;;;;;;;23.05;64.76;101153.34;5031403;28;20410;-65
2021/09/25 03:33:46;;;;;;;5.22;2.60;;;;;;;23.05;64.75;101156.03;5013121;28;20037;-65
2021/09/25 03:36:11;;;;;;;5.18;2.70;;;;;;;23.06;64.79;101159.50;5013408;28;20041;-65
2021/09/25 03:38:37;;;;;;;5.38;2.67;;;;;;;23.05;64.85;101144.50;5020062;28;20045;-65
2021/09/25 03:41:03;;;;;;;3.65;2.20;;;;;;;23.04;64.61;101151.69;4993816;28;20042;-65
2021/09/25 03:43:29;;;;;;;6.90;2.38;;;;;;;23.06;64.71;101151.50;5010638;28;20053;-66
2021/09/25 03:45:54;;;;;;;4.68;2.33;;;;;;;23.05;64.50;101147.16;5010052;28;20524;-65
2021/09/25 03:48:20;;;;;;;5.18;2.50;;;;;;;23.04;64.63;101151.69;5011314;28;20042;-66
2021/09/25 03:50:46;;;;;;;4.93;2.30;;;;;;;23.06;64.62;101151.50;5010051;28;20046;-67
2021/09/25 03:53:11;;;;;;;4.97;2.50;;;;;;;23.05;64.74;101148.00;5017548;28;20495;-67
2021/09/25 03:55:37;;;;;;;5.07;2.63;;;;;;;23.04;64.77;101141.00;5030716;28;20493;-67
2021/09/25 03:58:03;;;;;;;4.25;2.13;;;;;;;23.04;64.67;101138.31;5030089;28;20041;-67
2021/09/25 04:00:28;;;;;;;3.65;2.20;;;;;;;23.05;64.33;101139.13;5009145;28;20030;-65
2021/09/25 04:02:54;;;;;;;6.07;2.50;;;;;;;23.03;64.49;101136.66;5010786;28;20552;-66
2021/09/25 04:05:20;;;;;;;4.90;2.33;;;;;;;23.04;64.77;101137.47;5011076;28;20115;-67
2021/09/25 04:07:47;;;;;;;4.13;2.38;;;;;;;23.05;64.47;101133.78;4992859;28;20032;-66
2021/09/25 04:10:14;;;;;;;4.88;2.42;;;;;;;23.03;64.57;101131.28;5011154;28;20100;-67
2021/09/25 04:12:40;;;;;;;5.10;2.65;;;;;;;23.04;64.71;101130.28;5008450;28;20045;-66
2021/09/25 04:15:07;;;;;;;5.30;2.42;;;;;;;23.04;64.63;101140.16;5010684;28;20033;-67
2021/09/25 04:17:33;;;;;;;4.53;2.47;;;;;;;23.03;64.70;101136.66;5008964;28;20042;-67
2021/09/25 04:19:58;;;;;;;3.85;2.45;;;;;;;23.03;64.50;101128.63;5009412;28;20096;-66
2021/09/25 04:22:24;;;;;;;4.13;2.47;;;;;;;23.02;64.89;101135.81;5008910;28;20092;-66
2021/09/25 04:24:50;;;;;;;4.05;2.30;;;;;;;23.02;64.50;101133.16;5010372;28;20148;-66
2021/09/25 04:27:15;;;;;;;4.35;2.20;;;;;;;23.01;64.74;101128.00;5016493;28;20041;-66
2021/09/25 04:29:41;;;;;;;3.25;2.08;;;;;;;23.01;64.71;101133.38;5029747;28;20504;-67
2021/09/25 04:32:07;;;;;;;3.97;2.05;;;;;;;23.01;64.92;101128.00;5012157;28;20847;-66
2021/09/25 04:34:32;;;;;;;3.75;2.00;;;;;;;23.01;64.72;101133.38;5012212;28;20033;-66
2021/09/25 04:36:59;;;;;;;3.90;2.17;;;;;;;23.02;64.90;101129.66;5012349;28;20041;-66
2021/09/25 04:39:24;;;;;;;3.53;2.10;;;;;;;23.01;64.60;101125.34;5029950;28;20037;-66
2021/09/25 04:41:51;;;;;;;4.85;2.30;;;;;;;23.01;64.64;101122.66;5011135;28;20033;-67
2021/09/25 04:44:17;;;;;;;5.68;2.17;;;;;;;23.02;64.87;101121.63;5008605;28;20049;-66
2021/09/25 04:46:43;;;;;;;3.30;2.30;;;;;;;23.02;64.81;101119.78;5010171;28;20046;-66
2021/09/25 04:49:09;;;;;;;3.17;2.10;;;;;;;23.02;64.98;101113.59;4976575;28;20099;-67
2021/09/25 04:51:35;;;;;;;3.45;1.92;;;;;;;23.00;64.94;101127.19;5008390;28;20478;-66
2021/09/25 04:54:03;;;;;;;4.85;2.30;;;;;;;23.00;64.66;101113.81;5009610;28;20096;-67
2021/09/25 04:56:29;;;;;;;3.22;2.00;;;;;;;23.00;64.71;101124.53;4991944;28;20038;-66
2021/09/25 04:58:54;;;;;;;2.78;1.85;;;;;;;23.00;64.81;101123.69;5009898;28;20033;-66
2021/09/25 05:01:19;;;;;;;3.92;1.98;;;;;;;23.00;64.68;101124.53;5011219;28;20064;-66
2021/09/25 05:03:45;;;;;;;3.30;2.13;;;;;;;23.00;64.90;101127.19;5011486;28;20072;-67
2021/09/25 05:06:10;;;;;;;4.25;2.30;;;;;;;23.00;65.12;101124.53;5012004;28;20041;-66
2021/09/25 05:08:36;;;;;;;3.83;1.90;;;;;;;23.00;64.81;101126.38;5011556;28;20040;-66
2021/09/25 05:11:01;;;;;;;3.30;1.98;;;;;;;23.00;64.80;101126.38;5029655;28;20116;-67
2021/09/25 05:13:27;;;;;;;4.00;2.20;;;;;;;23.01;64.90;101133.38;5028387;28;20041;-67
2021/09/25 05:15:53;;;;;;;3.88;2.03;;;;;;;23.00;64.61;101127.19;4994737;28;20076;-66
2021/09/25 05:18:18;;;;;;;3.60;2.08;;;;;;;23.01;64.79;101128.00;5025778;28;20054;-66
2021/09/25 05:20:44;;;;;;;2.80;1.70;;;;;;;23.02;65.10;101124.31;5008045;28;20088;-67
2021/09/25 05:23:09;;;;;;;3.78;2.15;;;;;;;23.01;64.92;101120.00;4991576;28;20104;-67
2021/09/25 05:25:35;;;;;;;3.33;1.88;;;;;;;23.02;64.84;101118.97;5009650;28;20045;-66
2021/09/25 05:28:01;;;;;;;3.70;2.08;;;;;;;22.99;64.78;101117.53;5008885;28;20096;-67
2021/09/25 05:30:26;;;;;;;4.30;1.77;;;;;;;23.00;64.98;101116.50;5008417;28;20500;-67
2021/09/25 05:32:52;;;;;;;3.78;2.00;;;;;;;23.00;64.81;101110.31;5008926;28;20038;-66
2021/09/25 05:35:17;;;;;;;3.92;2.00;;;;;;;23.00;64.85;101111.16;5010801;28;20037;-66
2021/09/25 05:37:43;;;;;;;2.95;1.70;;;;;;;23.00;65.15;101113.81;5028350;28;20033;-66
2021/09/25 05:40:09;;;;;;;3.72;1.95;;;;;;;23.00;65.18;101113.00;5011550;28;20353;-67
2021/09/25 05:42:34;;;;;;;3.30;1.90;;;;;;;23.00;64.92;101110.31;5010559;28;20111;-66
2021/09/25 05:45:00;;;;;;;4.00;1.60;;;;;;;23.00;65.04;101113.00;5011163;28;20473;-67
2021/09/25 05:47:26;;;;;;;3.65;2.08;;;;;;;23.01;64.66;101111.97;5028963;28;20436;-67
2021/09/25 05:49:52;;;;;;;3.13;1.83;;;;;;;23.01;65.03;101117.31;5029064;28;20029;-67
2021/09/25 05:52:18;;;;;;;2.40;1.60;;;;;;;23.02;65.07;101116.28;5007996;28;20044;-67
2021/09/25 05:54:45;;;;;;;3.83;1.98;;;;;;;23.02;64.96;101121.63;5008986;28;20054;-66
2021/09/25 05:57:10;;;;;;;3.13;1.90;;;;;;;23.02;65.38;101116.28;5008412;28;20052;-67
2021/09/25 05:59:36;;;;;;;2.63;1.92;;;;;;;23.01;65.30;101120.00;5008946;28;20034;-66
2021/09/25 06:02:02;;;;;;;3.67;1.65;;;;;;;23.01;65.29;101117.31;5010205;28;20033;-67
2021/09/25 06:04:29;;;;;;;4.22;2.10;;;;;;;23.02;65.19;101116.28;5028986;28;20044;-67
2021/09/25 06:06:55;;;;;;;2.83;1.50;;;;;;;23.02;65.09;101116.28;5028527;28;20037;-66
2021/09/25 06:09:20;;;;;;;4.57;1.60;;;;;;;23.00;65.50;101111.16;5010995;28;20040;-66
2021/09/25 06:11:46;;;;;;;5.03;2.13;;;;;;;23.01;65.30;101117.31;5010004;28;20525;-66
2021/09/25 06:14:11;;;;;;;3.13;2.10;;;;;;;23.01;65.21;101114.63;5029037;28;20413;-66
2021/09/25 06:16:37;;;;;;;3.00;1.95;;;;;;;23.00;65.07;101108.47;5028670;28;20499;-66
2021/09/25 06:19:02;;;;;;;2.92;1.92;;;;;;;23.02;65.31;101109.06;5028744;28;20481;-67
2021/09/25 06:21:28;;;;;;;4.35;1.90;;;;;;;23.02;65.06;101110.94;5028889;28;20041;-66
2021/09/25 06:23:53;;;;;;;3.70;1.88;;;;;;;23.00;65.29;101116.50;5018832;28;20113;-66
2021/09/25 06:26:19;;;;;;;3.17;1.85;;;;;;;23.00;65.27;101124.53;5026447;28;20042;-66
2021/09/25 06:28:47;;;;;;;2.83;1.77;;;;;;;23.01;65.22;101125.34;5027639;28;20120;-66
2021/09/25 06:31:18;;;;;;;3.92;1.70;;;;;;;23.01;65.28;101122.66;5028640;28;20045;-67
2021/09/25 06:33:43;;;;;;;3.28;1.70;;;;;;;23.01;65.13;101122.66;5028473;28;20042;-66
2021/09/25 06:36:08;;;;;;;3.45;1.75;;;;;;;23.01;65.14;101122.66;5012951;28;20037;-66
2021/09/25 06:38:34;;;;;;;2.38;1.40;;;;;;;23.00;65.14;101121.03;5011003;28;20500;-67
2021/09/25 06:40:59;;;;;;;2.38;1.65;;;;;;;23.00;65.21;101123.69;5011162;28;20121;-66
2021/09/25 06:43:25;;;;;;;2.45;1.60;;;;;;;22.99;65.08;101114.84;5012203;28;20130;-67
2021/09/25 06:45:50;;;;;;;3.10;1.50;;;;;;;22.99;65.13;101112.19;5032016;28;20041;-67
2021/09/25 06:48:16;;;;;;;3.42;1.67;;;;;;;22.98;64.87;101115.88;5031775;28;20477;-67
2021/09/25 06:50:41;;;;;;;2.55;1.58;;;;;;;23.00;65.04;101113.00;4998090;28;20037;-67
2021/09/25 06:53:07;;;;;;;2.58;1.80;;;;;;;23.00;64.85;101121.03;5013431;28;20069;-67
2021/09/25 06:55:32;;;;;;;3.65;1.48;;;;;;;22.98;65.08;101121.25;5014238;28;20040;-67
2021/09/25 06:57:58;;;;;;;3.47;1.60;;;;;;;22.99;64.96;101119.38;5030264;28;20052;-67
2021/09/25 07:00:23;;;;;;;2.90;1.60;;;;;;;22.99;64.76;101120.22;5011577;28;20420;-67
2021/09/25 07:02:49;;;;;;;3.20;1.40;;;;;;;22.98;64.95;101113.22;4993992;28;20069;-67
2021/09/25 07:05:14;;;;;;;2.75;1.40;;;;;;;22.98;65.17;101118.56;4994572;28;20077;-67
2021/09/25 07:07:40;;;;;;;3.35;1.80;;;;;;;22.99;65.17;101116.72;5012183;28;20042;-67
2021/09/25 07:10:06;;;;;;;2.58;1.40;;;;;;;22.99;65.21;101111.34;5010207;28;20030;-67
2021/09/25 07:12:32;;;;;;;2.42;1.40;;;;;;;22.99;65.12;101108.69;5011166;28;20115;-67
2021/09/25 07:14:57;;;;;;;3.33;1.73;;;;;;;22.99;65.35;101108.69;5011679;28;20447;-67
2021/09/25 07:17:24;;;;;;;4.63;1.60;;;;;;;22.99;65.53;101101.47;5012405;28;20058;-68
2021/09/25 07:19:50;;;;;;;3.42;1.70;;;;;;;22.99;65.42;101101.47;5031725;28;20449;-67
2021/09/25 07:22:16;;;;;;;4.35;1.50;;;;;;;22.99;65.47;101103.31;5031407;28;20029;-67
2021/09/25 07:24:42;;;;;;;3.08;1.50;;;;;;;22.98;65.38;101105.19;5013948;28;20370;-67
2021/09/25 07:27:07;;;;;;;3.08;1.40;;;;;;;23.00;65.45;101113.00;5030063;28;20523;-67
2021/09/25 07:29:33;;;;;;;2.70;1.58;;;;;;;22.99;65.16;101114.03;5031253;28;20435;-67
2021/09/25 07:31:59;;;;;;;3.50;1.50;;;;;;;23.00;65.51;101113.81;5021776;28;20472;-66
2021/09/25 07:34:24;;;;;;;3.17;1.35;;;;;;;23.00;65.55;101115.69;5014505;28;20405;-65
2021/09/25 07:36:50;;;;;;;3.20;1.40;;;;;;;22.99;65.55;101108.69;5009030;28;20057;-67
2021/09/25 07:39:16;;;;;;;3.55;1.65;;;;;;;22.98;65.64;101105.19;5010831;28;20390;-72
2021/09/25 07:41:41;;;;;;;6.68;1.95;;;;;;;22.98;65.98;101109.72;5009905;28;20463;-67
2021/09/25 07:44:07;;;;;;;16.45;2.90;;;;;;;23.00;65.87;101113.81;5016895;28;20068;-79
2021/09/25 07:46:33;;;;;;;12.32;2.20;;;;;;;23.01;65.68;101109.28;5010842;28;20396;-70
2021/09/25 07:48:59;;;;;;;6.93;2.00;;;;;;;23.00;65.71;101105.78;4993439;28;20049;-70
2021/09/25 07:51:26;;;;;;;9.90;1.67;;;;;;;23.01;65.96;101109.28;5010355;28;20754;-67
2021/09/25 07:53:52;;;;;;;9.63;1.70;;;;;;;23.01;65.61;101090.56;5028220;28;20045;-68
2021/09/25 07:56:17;;;;;;;10.63;1.80;;;;;;;22.99;65.60;101087.28;5009338;28;20477;-67
2021/09/25 07:58:43;;;;;;;4.38;1.75;;;;;;;22.98;65.69;101088.31;5012202;28;20075;-66
2021/09/25 08:01:09;;;;;;;9.35;1.60;;;;;;;22.98;65.61;101091.00;5008429;28;20244;-68
2021/09/25 08:03:34;;;;;;;4.40;1.50;;;;;;;22.99;65.51;101095.31;5010637;28;20034;-68
2021/09/25 08:05:59;;;;;;;10.05;1.50;;;;;;;22.96;65.51;101098.41;5018594;28;20440;-68
2021/09/25 08:08:25;;;;;;;3.38;1.20;;;;;;;22.95;65.15;101110.97;5012998;28;20068;-68
2021/09/25 08:10:51;;;;;;;3.67;1.20;;;;;;;22.93;64.97;101113.03;5029889;28;20040;-67
2021/09/25 08:13:16;;;;;;;6.07;1.40;;;;;;;22.91;64.89;101108.94;5009949;28;20084;-68
2021/09/25 08:15:42;;;;;;;5.57;1.30;;;;;;;22.91;64.84;101111.59;5012635;28;20033;-68
2021/09/25 08:18:07;;;;;;;5.90;1.17;;;;;;;22.91;64.68;101114.28;5028483;28;20434;-68
2021/09/25 08:20:33;;;;;;;5.00;1.35;;;;;;;22.89;64.81;101106.47;4995293;28;20041;-68
2021/09/25 08:22:59;;;;;;;3.45;1.15;;;;;;;22.89;64.46;101113.69;5008406;28;20068;-69
2021/09/25 08:25:24;;;;;;;6.88;1.58;;;;;;;22.88;64.65;101110.19;4979728;28;20061;-69
2021/09/25 08:27:51;;;;;;;4.60;1.30;;;;;;;22.88;64.62;101109.34;5029140;28;20440;-68
2021/09/25 08:30:19;;;;;;;4.82;1.60;;;;;;;22.88;65.16;101112.00;5012587;28;20052;-69
2021/09/25 08:32:44;;;;;;;7.35;3.00;;;;;;;22.90;65.38;101104.63;5029991;28;20457;-69
2021/09/25 08:35:10;;;;;;;8.23;3.70;;;;;;;22.92;65.75;101100.69;5012182;28;20060;-69
2021/09/25 08:37:37;;;;;;;14.85;3.60;;;;;;;22.93;66.02;101104.19;5011872;28;20120;-71
2021/09/25 08:40:09;;;;;;;6.25;2.75;;;;;;;22.95;65.90;101105.63;5008258;28;20504;-69
2021/09/25 08:42:34;;;;;;;7.45;2.70;;;;;;;22.96;65.98;101109.09;5009029;28;20059;-69
2021/09/25 08:45:00;;;;;;;6.57;2.17;;;;;;;22.96;66.17;101107.25;5008736;28;20473;-74
2021/09/25 08:47:25;;;;;;;5.28;2.30;;;;;;;22.97;66.01;101100.06;5010011;28;20068;-66
2021/09/25 08:49:51;;;;;;;4.97;2.15;;;;;;;22.97;65.75;101102.72;5006092;28;20032;-68
2021/09/25 08:52:17;;;;;;;4.45;2.55;;;;;;;22.97;65.77;101100.06;4989151;28;20430;-66
2021/09/25 08:54:44;;;;;;;5.35;1.90;;;;;;;22.96;65.62;101099.22;4999290;28;20058;-65
2021/09/25 08:57:09;;;;;;;3.28;1.65;;;;;;;22.96;65.38;101098.41;5016401;28;20757;-63
2021/09/25 08:59:35;;;;;;;4.70;1.63;;;;;;;22.96;65.07;101101.91;5005465;28;20042;-66
2021/09/25 09:02:15;;;;;;;3.08;1.50;;;;;;;22.91;64.83;101099.06;5010188;28;20537;-65
2021/09/25 09:04:46;;;;;;;2.50;1.20;;;;;;;22.93;65.04;101093.50;5007177;28;20033;-66
2021/09/25 09:07:25;;;;;;;2.63;1.20;;;;;;;22.93;64.96;101090.81;4988426;28;20081;-67
2021/09/25 09:09:51;;;;;;;2.90;1.27;;;;;;;22.93;64.95;101096.16;5006492;28;20104;-66
2021/09/25 09:12:22;;;;;;;3.50;1.23;;;;;;;22.92;64.89;101099.88;5018448;28;20484;-65
2021/09/25 09:14:49;;;;;;;2.17;1.30;;;;;;;22.94;64.88;101103.16;5024879;28;20045;-67
2021/09/25 09:17:21;;;;;;;3.60;1.25;;;;;;;22.93;64.95;101106.88;5025119;28;20033;-69
2021/09/25 09:19:48;;;;;;;4.22;1.55;;;;;;;22.91;64.81;101104.41;5026170;28;20091;-68
2021/09/25 09:22:19;;;;;;;2.45;1.80;;;;;;;22.88;64.92;101104.84;5019526;28;20049;-66
2021/09/25 09:24:50;;;;;;;3.30;1.30;;;;;;;22.88;64.46;101106.66;5008582;28;20124;-65
2021/09/25 09:27:26;;;;;;;4.25;1.30;;;;;;;22.87;64.93;101108.50;5013486;28;20029;-65
2021/09/25 09:30:09;;;;;;;3.30;1.20;;;;;;;22.84;64.76;101111.63;5004780;28;20037;-70
2021/09/25 09:32:43;;;;;;;3.38;1.20;;;;;;;22.88;64.79;101109.34;5019443;28;20119;-65
2021/09/25 09:35:18;;;;;;;3.08;1.50;;;;;;;22.88;64.41;101115.53;5006026;28;20045;-65
2021/09/25 09:37:52;;;;;;;1.85;1.00;;;;;;;22.89;64.49;101103.81;5026483;28;20102;-64
2021/09/25 09:40:19;;;;;;;1.77;1.17;;;;;;;22.90;64.47;101105.44;5026164;28;20152;-66
2021/09/25 09:42:48;;;;;;;2.92;1.17;;;;;;;22.90;64.69;101109.97;5025079;28;20361;-64
2021/09/25 09:45:39;;;;;;;2.80;1.08;;;;;;;22.85;64.41;101099.06;5025597;28;20042;-67
2021/09/25 09:48:08;;;;;;;1.73;1.10;;;;;;;22.89;63.95;101108.31;5007748;28;20037;-65
2021/09/25 09:50:39;;;;;;;2.42;1.50;;;;;;;22.89;64.23;101105.66;5006851;28;20103;-68
2021/09/25 09:53:14;;;;;;;2.67;1.33;;;;;;;22.86;64.35;101104.19;5025999;28;20038;-66
2021/09/25 09:55:40;;;;;;;3.70;1.30;;;;;;;22.89;64.26;101092.28;5026395;28;20076;-65
2021/09/25 09:58:05;;;;;;;2.05;1.20;;;;;;;22.88;64.62;101096.81;4990993;28;20496;-68
2021/09/25 10:00:33;;;;;;;3.28;1.30;;;;;;;22.89;64.45;101102.97;5026584;28;20025;-68
2021/09/25 10:02:59;;;;;;;3.58;1.35;;;;;;;22.90;64.53;101101.94;5027277;28;20069;-68
2021/09/25 10:05:25;;;;;;;3.50;1.27;;;;;;;22.88;64.45;101096.81;5010086;28;20149;-68
2021/09/25 10:07:51;;;;;;;3.95;1.48;;;;;;;22.90;64.33;101096.59;5028243;28;20030;-68
2021/09/25 10:10:17;;;;;;;4.18;1.33;;;;;;;22.90;64.71;101101.94;5031822;28;20038;-68
2021/09/25 10:12:43;;;;;;;3.08;1.40;;;;;;;22.89;64.63;101090.44;5032071;28;20040;-68
2021/09/25 10:15:09;;;;;;;3.08;1.40;;;;;;;22.91;64.45;101090.22;5014941;28;20033;-68
2021/09/25 10:17:35;;;;;;;3.53;2.00;;;;;;;22.89;64.87;101084.25;5032806;28;20452;-68
2021/09/25 10:20:02;;;;;;;3.63;2.22;;;;;;;22.86;64.79;101090.00;5032639;28;20037;-68
2021/09/25 10:22:31;;;;;;;2.80;1.65;;;;;;;22.82;64.90;101089.59;5032898;28;20120;-68
2021/09/25 10:25:00;;;;;;;3.08;2.05;;;;;;;22.80;64.95;101093.50;5031300;28;20075;-68
2021/09/25 10:27:33;;;;;;;3.03;2.10;;;;;;;22.76;65.09;101089.63;5013452;28;20026;-69
2021/09/25 10:30:04;;;;;;;2.88;1.98;;;;;;;22.73;64.87;101082.84;5031642;28;20455;-68
2021/09/25 10:32:43;;;;;;;3.75;2.25;;;;;;;22.71;64.84;101080.34;4998864;28;20044;-68
2021/09/25 10:35:28;;;;;;;2.40;1.73;;;;;;;22.67;64.75;101081.00;5032502;28;20133;-68
2021/09/25 10:38:02;;;;;;;3.33;2.03;;;;;;;22.73;64.95;101080.16;5014558;28;20472;-68
2021/09/25 10:40:30;;;;;;;3.10;1.80;;;;;;;22.72;65.13;101081.16;5032574;28;20030;-68
2021/09/25 10:43:01;;;;;;;3.70;2.00;;;;;;;22.69;65.02;101074.41;5031479;28;20048;-69
2021/09/25 10:45:32;;;;;;;3.75;2.08;;;;;;;22.70;64.78;101070.69;5032465;28;20041;-69
2021/09/25 10:48:03;;;;;;;3.15;1.90;;;;;;;22.67;64.83;101070.28;5031841;28;20418;-69
2021/09/25 10:50:29;;;;;;;3.10;1.60;;;;;;;22.68;65.00;101064.72;5032528;28;20061;-69
2021/09/25 10:53:16;;;;;;;2.58;1.40;;;;;;;22.63;64.99;101061.88;5014250;28;20146;-68
2021/09/25 10:55:45;;;;;;;2.03;1.45;;;;;;;22.68;64.77;101064.72;5014042;28;20080;-68
2021/09/25 10:58:18;;;;;;;2.78;1.65;;;;;;;22.68;64.99;101064.72;5031074;28;20112;-67
2021/09/25 11:00:47;;;;;;;2.78;1.42;;;;;;;22.71;64.63;101063.47;5026359;28;20034;-68
2021/09/25 11:03:39;;;;;;;1.98;1.40;;;;;;;22.66;64.94;101057.97;4994192;28;20597;-68
2021/09/25 11:06:05;;;;;;;2.47;1.40;;;;;;;22.74;64.68;101060.41;5000799;28;20050;-68
2021/09/25 11:08:32;;;;;;;3.20;1.40;;;;;;;22.74;64.62;101060.41;5011848;28;20444;-68
2021/09/25 11:11:12;;;;;;;2.03;1.30;;;;;;;22.71;64.49;101056.28;4994480;28;20057;-68
2021/09/25 11:14:06;;;;;;;2.42;1.50;;;;;;;22.70;64.86;101057.31;5011374;28;20034;-68
2021/09/25 11:16:47;;;;;;;1.77;1.17;;;;;;;22.71;64.56;101050.94;5012444;28;20143;-68
2021/09/25 11:19:22;;;;;;;2.20;1.40;;;;;;;22.74;64.72;101044.38;4993862;28;20033;-68
2021/09/25 11:22:15;;;;;;;1.52;1.30;;;;;;;22.71;64.72;101042.91;5011361;28;20045;-68
2021/09/25 11:24:44;;;;;;;2.00;1.30;;;;;;;22.78;64.34;101039.41;5011874;28;20491;-68